Time;durP1;ratioP1;P1;durP2;ratioP2;P2;SDS_P1;SDS_P2;PMS_P1;PMS_P2;Temp;Humidity;BMP_temperature;BMP_pressure;BME280_temperature;BME280_humidity;BME280_pressure;Samples;Min_cycle;Max_cycle;Signal;HPM_P1;HPM_P2
2023/03/03 00:00:22;;;;;;;3.13;2.42;;;;;;;20.13;32.81;102501.94;5095507;28;20051;-68
2023/03/03 00:02:47;;;;;;;3.40;2.80;;;;;;;20.17;32.63;102502.53;5091955;28;20048;-69
2023/03/03 00:05:14;;;;;;;3.55;2.90;;;;;;;20.15;32.43;102499.13;5094185;28;20058;-68
2023/03/03 00:07:42;;;;;;;3.17;2.85;;;;;;;20.19;32.59;102511.34;5094296;28;20032;-69
2023/03/03 00:10:08;;;;;;;4.53;3.03;;;;;;;20.18;32.66;102506.94;5094580;28;20048;-69
2023/03/03 00:12:34;;;;;;;4.03;3.00;;;;;;;20.18;32.56;102507.81;5092011;28;20023;-69
2023/03/03 00:14:59;;;;;;;3.47;2.67;;;;;;;20.20;32.69;102507.66;5089373;28;20084;-68
2023/03/03 00:17:27;;;;;;;3.97;2.72;;;;;;;20.21;32.39;102503.94;5095891;28;20088;-68
2023/03/03 00:19:52;;;;;;;3.92;3.08;;;;;;;20.20;32.63;102507.66;5097315;28;20028;-68
2023/03/03 00:22:27;;;;;;;5.13;2.80;;;;;;;20.20;32.27;102505.81;5092287;28;20033;-68
2023/03/03 00:24:53;;;;;;;3.55;2.75;;;;;;;20.21;32.57;102507.50;5094912;28;20046;-68
2023/03/03 00:27:37;;;;;;;4.82;3.13;;;;;;;19.45;32.45;102387.47;5098787;28;20017;-69
2023/03/03 00:30:02;;;;;;;3.20;2.40;;;;;;;20.23;32.49;102516.34;5102678;28;20036;-68
2023/03/03 00:32:51;;;;;;;3.20;2.88;;;;;;;20.23;32.42;102515.50;5090355;28;20020;-68
2023/03/03 00:35:26;;;;;;;5.13;2.97;;;;;;;19.71;32.24;102434.63;5096016;28;20024;-68
2023/03/03 00:38:00;;;;;;;2.90;2.38;;;;;;;20.22;32.23;102511.94;5107798;28;20055;-69
2023/03/03 00:40:38;;;;;;;3.95;2.95;;;;;;;20.25;32.39;102513.50;5098947;28;20054;-69
2023/03/03 00:43:24;;;;;;;3.97;3.00;;;;;;;19.80;32.21;102445.59;5091858;28;20045;-68
2023/03/03 00:45:51;;;;;;;4.28;3.47;;;;;;;20.27;31.99;102518.78;5098384;28;20017;-68
2023/03/03 00:48:25;;;;;;;6.45;3.60;;;;;;;20.27;32.17;102510.66;5101416;28;20026;-68
2023/03/03 00:50:52;;;;;;;4.75;3.28;;;;;;;19.75;32.09;102434.34;5091277;28;20031;-68
2023/03/03 00:53:19;;;;;;;4.05;2.97;;;;;;;20.25;32.06;102510.78;5080827;28;20048;-69
2023/03/03 00:55:46;;;;;;;4.40;3.15;;;;;;;19.82;32.15;102452.56;5095869;28;20023;-68
2023/03/03 00:58:12;;;;;;;4.68;3.38;;;;;;;20.27;32.03;102513.38;5085423;28;20032;-68
2023/03/03 01:00:38;;;;;;;4.20;2.97;;;;;;;19.78;32.03;102437.63;5094740;28;20074;-67
2023/03/03 01:03:08;;;;;;;3.75;3.38;;;;;;;19.76;32.29;102415.34;5103080;28;20043;-67
2023/03/03 01:05:35;;;;;;;3.60;3.10;;;;;;;20.32;32.26;102506.53;5092100;28;20099;-68
2023/03/03 01:08:01;;;;;;;4.10;2.80;;;;;;;20.32;32.34;102514.66;5109275;28;20024;-68
2023/03/03 01:10:30;;;;;;;3.67;2.92;;;;;;;19.88;31.87;102435.81;5100570;28;20031;-67
2023/03/03 01:12:56;;;;;;;4.25;3.28;;;;;;;20.28;32.24;102497.00;5102441;28;20050;-69
2023/03/03 01:15:22;;;;;;;4.90;3.30;;;;;;;20.36;32.07;102509.81;5093991;28;20024;-68
2023/03/03 01:17:47;;;;;;;4.15;3.35;;;;;;;19.85;32.05;102427.16;5089684;28;20088;-68
2023/03/03 01:20:14;;;;;;;4.60;3.40;;;;;;;20.37;32.02;102509.69;5096272;28;20050;-68
2023/03/03 01:22:39;;;;;;;4.65;3.75;;;;;;;20.38;32.02;102505.97;5085951;28;20099;-68
2023/03/03 01:25:06;;;;;;;3.50;2.80;;;;;;;20.38;32.12;102502.44;5091516;28;20039;-68
2023/03/03 01:27:31;;;;;;;3.65;2.95;;;;;;;20.39;32.12;102502.31;5098112;28;20020;-68
2023/03/03 01:29:57;;;;;;;4.45;3.33;;;;;;;20.39;31.96;102494.19;5092100;28;20067;-69
2023/03/03 01:32:23;;;;;;;3.65;2.85;;;;;;;19.89;31.92;102410.53;5092547;28;20028;-69
2023/03/03 01:34:48;;;;;;;4.65;3.47;;;;;;;20.41;31.42;102496.75;5090976;28;20052;-68
2023/03/03 01:37:14;;;;;;;3.92;3.20;;;;;;;20.42;31.82;102504.69;5094969;28;20039;-69
2023/03/03 01:39:39;;;;;;;4.68;3.50;;;;;;;20.42;31.70;102506.56;5093770;28;20388;-68
2023/03/03 01:42:04;;;;;;;3.90;2.85;;;;;;;20.43;31.78;102503.72;5092609;28;20044;-69
2023/03/03 01:44:30;;;;;;;4.40;3.60;;;;;;;19.95;32.05;102418.06;5086157;28;20024;-68
2023/03/03 01:47:27;;;;;;;3.95;3.13;;;;;;;20.44;31.66;102505.44;5091418;28;20090;-69
2023/03/03 01:49:59;;;;;;;4.82;3.78;;;;;;;20.05;31.76;102431.59;5078274;28;20035;-68
2023/03/03 01:52:30;;;;;;;4.22;3.08;;;;;;;20.20;31.85;102462.59;5102432;28;20068;-68
2023/03/03 01:55:20;;;;;;;4.15;3.40;;;;;;;20.45;31.71;102507.13;5092662;28;20119;-68
2023/03/03 01:57:58;;;;;;;4.05;3.13;;;;;;;20.36;31.65;102489.06;5086421;28;20113;-68
2023/03/03 02:00:23;;;;;;;4.60;3.20;;;;;;;20.00;31.61;102424.88;5092856;28;20044;-69
2023/03/03 02:02:49;;;;;;;4.15;3.38;;;;;;;20.49;31.66;102498.78;5090754;28;20075;-68
2023/03/03 02:05:15;;;;;;;4.85;3.13;;;;;;;20.49;31.76;102501.50;5088804;28;20021;-68
2023/03/03 02:07:40;;;;;;;3.85;3.22;;;;;;;20.03;31.57;102427.31;5090648;28;20048;-68
2023/03/03 02:10:10;;;;;;;4.78;3.35;;;;;;;20.48;31.86;102506.03;5087680;28;20024;-69
2023/03/03 02:12:51;;;;;;;4.05;3.17;;;;;;;20.50;31.89;102497.78;5090550;28;20028;-68
2023/03/03 02:15:34;;;;;;;4.28;3.08;;;;;;;20.52;31.62;102499.38;5085364;28;20046;-68
2023/03/03 02:18:06;;;;;;;4.35;3.20;;;;;;;20.53;31.42;102497.50;5093362;28;20040;-68
2023/03/03 02:20:43;;;;;;;3.90;2.90;;;;;;;20.53;31.64;102498.38;5076121;28;20028;-69
2023/03/03 02:23:17;;;;;;;4.40;3.17;;;;;;;20.53;31.81;102500.22;5073349;28;20458;-68
2023/03/03 02:25:51;;;;;;;4.97;2.92;;;;;;;20.53;31.68;102495.66;5094750;28;20084;-68
2023/03/03 02:28:17;;;;;;;3.72;2.85;;;;;;;20.46;31.77;102478.25;5088598;28;20032;-68
2023/03/03 02:30:42;;;;;;;4.97;3.20;;;;;;;20.56;31.32;102495.38;5091820;28;20089;-68
2023/03/03 02:33:08;;;;;;;4.20;2.72;;;;;;;20.57;31.57;102501.66;5084477;28;20474;-68
2023/03/03 02:35:36;;;;;;;4.28;3.20;;;;;;;20.55;31.31;102496.34;5088359;28;20837;-69
2023/03/03 02:38:08;;;;;;;5.50;3.97;;;;;;;20.43;31.26;102478.53;5090230;28;20048;-68
2023/03/03 02:40:36;;;;;;;5.55;3.30;;;;;;;20.45;31.44;102481.97;5095659;28;20020;-68
2023/03/03 02:43:03;;;;;;;4.15;2.83;;;;;;;20.59;31.64;102503.19;5088877;28;20026;-68
2023/03/03 02:45:28;;;;;;;4.82;3.03;;;;;;;20.59;31.44;102494.22;5088328;28;20032;-68
2023/03/03 02:47:53;;;;;;;4.30;3.17;;;;;;;20.07;31.45;102418.81;5093710;28;20024;-68
2023/03/03 02:50:19;;;;;;;4.40;3.20;;;;;;;20.41;31.38;102477.84;5093924;28;20032;-68
2023/03/03 02:52:44;;;;;;;4.07;3.28;;;;;;;20.16;31.48;102425.22;5088011;28;20039;-70
2023/03/03 02:55:09;;;;;;;3.28;2.58;;;;;;;20.30;31.50;102450.94;5088756;28;20036;-69
2023/03/03 02:57:34;;;;;;;5.60;3.60;;;;;;;20.61;31.15;102495.81;5096385;28;20032;-68
2023/03/03 03:00:00;;;;;;;3.33;2.78;;;;;;;20.15;31.20;102423.50;5094035;28;20087;-67
2023/03/03 03:02:26;;;;;;;4.07;3.15;;;;;;;20.64;31.58;102500.06;5090132;28;20051;-70
2023/03/03 03:04:51;;;;;;;4.20;2.88;;;;;;;20.52;31.40;102477.75;5101624;28;20088;-70
2023/03/03 03:07:17;;;;;;;3.83;3.22;;;;;;;20.59;31.53;102488.81;5099786;28;20060;-68
2023/03/03 03:09:42;;;;;;;3.95;2.90;;;;;;;20.65;31.11;102504.50;5101114;28;20025;-68
2023/03/03 03:12:07;;;;;;;4.30;3.10;;;;;;;20.65;31.18;102504.50;5098251;28;20447;-68
2023/03/03 03:14:32;;;;;;;4.35;2.90;;;;;;;20.57;31.24;102488.97;5092518;28;20092;-68
2023/03/03 03:16:58;;;;;;;4.47;2.90;;;;;;;20.59;31.58;102495.09;5100454;28;20024;-68
2023/03/03 03:19:23;;;;;;;4.18;2.92;;;;;;;20.69;31.22;102504.06;5092477;28;20074;-68
2023/03/03 03:21:48;;;;;;;4.05;3.15;;;;;;;20.63;31.23;102491.09;5088646;28;20076;-68
2023/03/03 03:24:14;;;;;;;4.47;3.10;;;;;;;20.69;31.08;102501.38;5094154;28;20473;-68
2023/03/03 03:26:39;;;;;;;3.78;2.90;;;;;;;20.71;31.20;102504.75;5103361;28;20028;-68
2023/03/03 03:29:05;;;;;;;5.05;3.05;;;;;;;20.70;31.10;102497.66;5107021;28;20377;-68
2023/03/03 03:31:30;;;;;;;3.95;3.20;;;;;;;20.72;31.18;102500.22;5095286;28;20019;-68
2023/03/03 03:33:56;;;;;;;3.65;3.05;;;;;;;20.71;31.21;102506.63;5096957;28;20036;-68
2023/03/03 03:36:21;;;;;;;3.90;2.88;;;;;;;20.72;31.18;102509.16;5106987;28;20033;-68
2023/03/03 03:38:46;;;;;;;3.30;2.65;;;;;;;20.73;31.09;102510.06;5094119;28;20039;-69
2023/03/03 03:41:12;;;;;;;4.00;2.65;;;;;;;20.62;31.11;102504.78;5099424;28;20036;-69
2023/03/03 03:43:38;;;;;;;4.10;3.00;;;;;;;20.74;30.94;102517.16;5099503;28;20023;-68
2023/03/03 03:46:04;;;;;;;3.85;2.72;;;;;;;20.75;31.08;102515.31;5096990;28;20033;-68
2023/03/03 03:48:29;;;;;;;3.65;2.92;;;;;;;20.75;31.07;102524.25;5100454;28;20044;-68
2023/03/03 03:50:54;;;;;;;4.00;2.67;;;;;;;20.66;30.98;102507.03;5096690;28;20040;-68
2023/03/03 03:53:20;;;;;;;3.60;2.67;;;;;;;20.65;30.93;102496.38;5098261;28;20031;-68
2023/03/03 03:55:45;;;;;;;3.00;2.42;;;;;;;20.79;31.09;102519.44;5096346;28;20043;-68
2023/03/03 03:58:12;;;;;;;4.40;2.65;;;;;;;20.80;30.99;102513.88;5093708;28;20081;-68
2023/03/03 04:00:40;;;;;;;3.63;2.92;;;;;;;20.63;31.21;102484.84;5093442;28;20028;-68
2023/03/03 04:03:05;;;;;;;3.90;3.08;;;;;;;20.35;30.89;102444.16;5097718;28;20056;-69
2023/03/03 04:05:30;;;;;;;3.65;2.72;;;;;;;20.82;30.96;102511.03;5105560;28;20021;-68
2023/03/03 04:07:56;;;;;;;4.22;2.90;;;;;;;20.24;31.29;102417.25;5096479;28;20029;-68
2023/03/03 04:10:21;;;;;;;4.45;3.05;;;;;;;20.84;31.10;102514.44;5092956;28;20028;-68
2023/03/03 04:12:46;;;;;;;3.65;3.00;;;;;;;20.84;30.92;102518.00;5097805;28;20024;-69
2023/03/03 04:15:12;;;;;;;3.22;2.50;;;;;;;20.40;30.99;102443.72;5092249;28;20036;-68
2023/03/03 04:17:38;;;;;;;3.95;2.90;;;;;;;20.85;30.95;102522.41;5097410;28;20031;-68
2023/03/03 04:20:04;;;;;;;4.15;2.83;;;;;;;20.87;31.08;102519.56;5099267;28;20032;-68
2023/03/03 04:22:33;;;;;;;3.13;2.60;;;;;;;20.65;31.03;102482.88;5098829;28;20024;-69
2023/03/03 04:25:03;;;;;;;4.05;3.03;;;;;;;20.78;31.01;102498.81;5093217;28;20023;-68
2023/03/03 04:27:32;;;;;;;4.20;3.17;;;;;;;20.90;31.12;102528.25;5096931;28;20018;-68
2023/03/03 04:29:58;;;;;;;3.53;2.17;;;;;;;20.90;30.93;102519.31;5098418;28;20034;-68
2023/03/03 04:32:23;;;;;;;3.50;2.70;;;;;;;20.50;30.78;102458.09;5094869;28;20111;-68
2023/03/03 04:34:48;;;;;;;3.30;2.40;;;;;;;20.86;30.70;102510.63;5098668;28;20024;-68
2023/03/03 04:37:14;;;;;;;3.10;2.40;;;;;;;20.94;30.99;102515.28;5099144;28;20492;-68
2023/03/03 04:39:39;;;;;;;3.05;2.25;;;;;;;20.92;31.14;102515.44;5100308;28;20052;-69
2023/03/03 04:42:05;;;;;;;3.33;2.35;;;;;;;20.89;30.85;102514.88;5092854;28;20494;-68
2023/03/03 04:44:30;;;;;;;2.95;2.40;;;;;;;20.96;30.78;102519.56;5100033;28;20020;-68
2023/03/03 04:46:55;;;;;;;3.15;2.70;;;;;;;20.56;30.89;102448.56;5092557;28;20058;-68
2023/03/03 04:49:20;;;;;;;3.15;2.60;;;;;;;20.98;30.92;102516.69;5091096;28;20518;-68
2023/03/03 04:51:46;;;;;;;3.10;2.25;;;;;;;20.89;31.13;102496.78;5079957;28;20105;-69
2023/03/03 04:54:11;;;;;;;3.38;2.30;;;;;;;20.93;30.76;102502.75;5094719;28;20099;-68
2023/03/03 04:56:36;;;;;;;3.17;2.45;;;;;;;20.58;30.77;102447.44;5091952;28;20039;-69
2023/03/03 04:59:02;;;;;;;2.88;2.22;;;;;;;21.02;30.68;102515.41;5090948;28;20043;-68
2023/03/03 05:01:27;;;;;;;3.38;2.38;;;;;;;20.63;30.97;102449.72;5098275;28;20039;-68
2023/03/03 05:03:52;;;;;;;2.92;2.28;;;;;;;21.03;31.07;102511.75;5094798;28;20059;-68
2023/03/03 05:06:17;;;;;;;3.78;2.55;;;;;;;21.02;30.78;102501.06;5101229;28;20025;-68
2023/03/03 05:08:43;;;;;;;2.60;2.03;;;;;;;21.04;31.01;102512.59;5092377;28;20076;-68
2023/03/03 05:11:09;;;;;;;3.72;2.72;;;;;;;21.00;30.80;102497.66;5101396;28;20091;-68
2023/03/03 05:13:34;;;;;;;3.67;2.55;;;;;;;21.10;30.62;102510.16;5079369;28;20028;-68
2023/03/03 05:16:00;;;;;;;4.40;2.50;;;;;;;21.10;30.71;102509.31;5097453;28;20026;-68
2023/03/03 05:18:26;;;;;;;4.15;2.90;;;;;;;21.12;30.58;102510.03;5101721;28;20579;-68
2023/03/03 05:20:52;;;;;;;3.00;2.53;;;;;;;21.10;30.69;102512.84;5100392;28;20020;-68
2023/03/03 05:23:18;;;;;;;4.03;2.70;;;;;;;21.10;30.64;102515.56;5099016;28;20456;-68
2023/03/03 05:25:44;;;;;;;2.75;2.28;;;;;;;21.12;30.78;102512.72;5098219;28;20035;-67
2023/03/03 05:28:10;;;;;;;3.47;2.53;;;;;;;20.62;30.86;102429.09;5100696;28;20029;-68
2023/03/03 05:30:36;;;;;;;3.38;2.08;;;;;;;21.14;30.98;102516.13;5100777;28;20036;-68
2023/03/03 05:33:02;;;;;;;3.63;2.63;;;;;;;21.05;30.82;102507.03;5091308;28;20127;-68
2023/03/03 05:35:27;;;;;;;3.25;2.42;;;;;;;21.16;30.69;102522.25;5101115;28;20048;-68
2023/03/03 05:37:53;;;;;;;3.28;2.17;;;;;;;21.16;31.16;102520.41;5083355;28;20048;-68
2023/03/03 05:40:19;;;;;;;3.92;2.20;;;;;;;21.16;30.71;102527.66;5099348;28;20396;-69
2023/03/03 05:42:44;;;;;;;2.92;2.03;;;;;;;21.18;30.74;102526.50;5097849;28;20020;-69
2023/03/03 05:45:10;;;;;;;4.35;2.47;;;;;;;20.71;31.08;102441.75;5098555;28;20048;-69
2023/03/03 05:47:35;;;;;;;3.80;2.15;;;;;;;21.21;31.01;102531.63;5099879;28;20031;-68
2023/03/03 05:50:00;;;;;;;2.70;2.38;;;;;;;20.76;31.26;102462.94;5094449;28;20051;-69
2023/03/03 05:52:26;;;;;;;3.08;2.17;;;;;;;20.80;31.22;102461.66;5099760;28;20542;-68
2023/03/03 05:54:51;;;;;;;2.70;2.00;;;;;;;20.76;31.32;102455.69;5099526;28;20039;-68
2023/03/03 05:57:16;;;;;;;3.05;2.13;;;;;;;20.77;31.16;102460.09;5100852;28;20036;-69
2023/03/03 05:59:42;;;;;;;3.72;2.28;;;;;;;21.23;31.18;102534.19;5097980;28;20072;-69
2023/03/03 06:02:07;;;;;;;2.63;2.05;;;;;;;20.87;31.19;102469.06;5099177;28;20052;-70
2023/03/03 06:04:33;;;;;;;2.90;2.53;;;;;;;20.83;31.45;102459.53;5097525;28;20028;-69
2023/03/03 06:06:58;;;;;;;2.65;1.95;;;;;;;21.01;31.03;102492.09;5081050;28;20651;-66
2023/03/03 06:09:25;;;;;;;2.67;2.00;;;;;;;21.11;31.05;102500.19;5092731;28;20031;-68
2023/03/03 06:11:52;;;;;;;3.45;2.10;;;;;;;20.87;31.52;102463.66;5079373;28;20591;-68
2023/03/03 06:14:17;;;;;;;2.42;1.75;;;;;;;21.15;31.08;102504.31;5094951;28;20107;-68
2023/03/03 06:16:43;;;;;;;3.83;2.30;;;;;;;20.91;31.19;102473.19;5098587;28;20092;-69
2023/03/03 06:19:08;;;;;;;4.90;2.00;;;;;;;21.31;31.41;102537.03;5097243;28;20366;-69
2023/03/03 06:21:33;;;;;;;2.38;2.15;;;;;;;21.32;31.42;102533.34;5097510;28;20046;-68
2023/03/03 06:23:58;;;;;;;4.55;2.05;;;;;;;21.04;31.38;102493.66;5100451;28;20028;-69
2023/03/03 06:26:24;;;;;;;3.75;2.08;;;;;;;20.85;31.23;102460.22;5097243;28;20024;-70
2023/03/03 06:28:52;;;;;;;2.33;1.92;;;;;;;21.23;31.32;102540.44;5100347;28;20032;-69
2023/03/03 06:31:18;;;;;;;2.53;1.90;;;;;;;21.31;31.46;102533.47;5098463;28;20043;-69
2023/03/03 06:33:43;;;;;;;3.17;2.03;;;;;;;21.26;31.43;102522.25;5098464;28;20032;-69
2023/03/03 06:36:09;;;;;;;2.28;2.03;;;;;;;20.94;31.79;102490.94;5099247;28;20081;-69
2023/03/03 06:38:35;;;;;;;2.92;2.10;;;;;;;21.31;31.64;102541.59;5098446;28;20028;-69
2023/03/03 06:41:03;;;;;;;3.97;2.22;;;;;;;21.31;31.31;102533.47;5098086;28;20495;-68
2023/03/03 06:43:28;;;;;;;3.45;1.90;;;;;;;21.26;31.55;102530.34;5095515;28;20020;-68
2023/03/03 06:45:53;;;;;;;3.10;1.90;;;;;;;21.28;31.61;102531.03;5101655;28;20054;-69
2023/03/03 06:48:19;;;;;;;2.72;1.98;;;;;;;21.28;31.68;102531.03;5098480;28;20016;-68
2023/03/03 06:50:44;;;;;;;3.47;1.90;;;;;;;21.33;31.59;102540.50;5096837;28;20035;-69
2023/03/03 06:53:12;;;;;;;2.38;1.60;;;;;;;21.33;31.64;102551.31;5082895;28;20083;-69
2023/03/03 06:55:38;;;;;;;3.13;1.97;;;;;;;21.34;31.43;102552.16;5098416;28;20043;-69
2023/03/03 06:58:15;;;;;;;2.08;1.70;;;;;;;20.73;31.67;102458.69;5094470;28;20023;-69
2023/03/03 07:01:01;;;;;;;2.47;1.85;;;;;;;21.35;31.44;102560.13;5081632;28;20028;-67
2023/03/03 07:03:32;;;;;;;2.33;1.65;;;;;;;21.35;31.67;102562.81;5098423;28;20051;-67
2023/03/03 07:05:57;;;;;;;2.47;1.80;;;;;;;21.25;31.67;102540.31;5092885;28;20020;-69
2023/03/03 07:08:23;;;;;;;2.40;1.77;;;;;;;20.92;31.45;102495.66;5097592;28;20020;-68
2023/03/03 07:10:50;;;;;;;2.42;2.00;;;;;;;21.41;31.62;102564.13;5090764;28;20032;-69
2023/03/03 07:13:20;;;;;;;2.17;1.70;;;;;;;21.23;31.34;102535.03;5102034;28;20060;-70
2023/03/03 07:15:46;;;;;;;2.25;1.63;;;;;;;21.38;31.17;102567.09;5092918;28;20032;-69
2023/03/03 07:18:31;;;;;;;3.45;2.13;;;;;;;21.41;31.61;102566.84;5095495;28;20082;-69
2023/03/03 07:20:57;;;;;;;3.80;1.80;;;;;;;21.01;31.23;102508.31;5088048;28;20555;-68
2023/03/03 07:23:25;;;;;;;8.05;1.85;;;;;;;21.43;31.82;102584.59;5101212;28;20024;-68
2023/03/03 07:25:51;;;;;;;3.42;2.03;;;;;;;21.24;31.46;102552.16;5096676;28;20027;-69
2023/03/03 07:28:24;;;;;;;2.95;2.20;;;;;;;21.43;31.19;102583.75;5091975;28;20034;-68
2023/03/03 07:30:50;;;;;;;2.78;1.58;;;;;;;21.44;31.14;102593.56;5092760;28;20035;-69
2023/03/03 07:33:24;;;;;;;3.63;2.03;;;;;;;21.43;31.48;102589.16;5097328;28;20062;-68
2023/03/03 07:35:49;;;;;;;2.65;1.65;;;;;;;21.39;31.47;102585.03;5095289;28;20025;-70
2023/03/03 07:38:34;;;;;;;3.17;2.15;;;;;;;21.43;31.26;102598.13;5095098;28;20063;-69
2023/03/03 07:41:02;;;;;;;2.08;1.48;;;;;;;21.42;31.50;102607.25;5084798;28;20028;-69
2023/03/03 07:43:43;;;;;;;2.25;1.50;;;;;;;21.36;31.01;102597.00;5099245;28;20043;-70
2023/03/03 07:46:35;;;;;;;2.45;1.70;;;;;;;21.26;31.45;102568.22;5079270;28;20025;-69
2023/03/03 07:49:12;;;;;;;3.33;1.95;;;;;;;21.29;31.11;102597.72;5090166;28;20021;-69
2023/03/03 07:51:42;;;;;;;2.63;1.73;;;;;;;21.45;31.08;102625.03;5094439;28;20030;-68
2023/03/03 07:54:31;;;;;;;2.47;1.70;;;;;;;21.48;30.99;102630.19;5095058;28;20304;-70
2023/03/03 07:57:22;;;;;;;2.38;1.55;;;;;;;21.49;30.93;102628.31;5090379;28;20029;-69
2023/03/03 07:59:51;;;;;;;2.72;1.60;;;;;;;21.01;31.18;102545.31;5090309;28;20040;-69
2023/03/03 08:02:37;;;;;;;2.00;1.50;;;;;;;21.50;31.28;102635.47;5094806;28;20058;-69
2023/03/03 08:05:27;;;;;;;2.72;1.73;;;;;;;21.51;31.24;102640.72;5086326;28;20477;-69
2023/03/03 08:07:52;;;;;;;2.63;1.70;;;;;;;21.32;31.06;102608.25;5069704;28;20483;-70
2023/03/03 08:10:34;;;;;;;1.63;1.30;;;;;;;21.50;31.32;102636.31;5074438;28;20059;-68
2023/03/03 08:13:04;;;;;;;2.20;1.67;;;;;;;20.92;30.99;102531.66;5099925;28;20031;-69
2023/03/03 08:15:36;;;;;;;2.38;1.65;;;;;;;21.36;31.29;102620.50;5096779;28;20032;-68
2023/03/03 08:18:01;;;;;;;2.47;1.40;;;;;;;21.55;31.02;102642.16;5102800;28;20108;-68
2023/03/03 08:20:43;;;;;;;2.05;1.60;;;;;;;21.54;31.28;102639.59;5100827;28;20028;-68
2023/03/03 08:23:09;;;;;;;1.90;1.30;;;;;;;21.57;30.85;102644.69;5081438;28;20381;-68
2023/03/03 08:25:35;;;;;;;2.17;1.40;;;;;;;21.02;30.94;102547.88;5103696;28;20024;-68
2023/03/03 08:28:00;;;;;;;1.85;1.45;;;;;;;21.58;30.83;102636.44;5097845;28;20611;-67
2023/03/03 08:30:25;;;;;;;3.25;1.63;;;;;;;21.59;30.77;102635.44;5100547;28;20035;-71
2023/03/03 08:32:50;;;;;;;2.25;1.45;;;;;;;21.54;31.12;102616.09;5083813;28;20053;-71
2023/03/03 08:35:16;;;;;;;2.90;1.55;;;;;;;21.62;30.91;102640.56;5100108;28;20481;-68
2023/03/03 08:37:41;;;;;;;2.25;1.20;;;;;;;21.27;31.25;102578.03;5100326;28;20028;-70
2023/03/03 08:40:07;;;;;;;2.00;1.30;;;;;;;21.60;30.93;102633.59;5102139;28;20024;-70
2023/03/03 08:42:32;;;;;;;1.95;1.52;;;;;;;21.38;31.21;102603.13;5100356;28;20044;-71
2023/03/03 08:44:58;;;;;;;3.35;1.25;;;;;;;21.45;31.18;102608.81;5100607;28;20048;-71
2023/03/03 08:47:23;;;;;;;2.53;1.80;;;;;;;21.58;31.11;102631.03;5100273;28;20035;-71
2023/03/03 08:49:48;;;;;;;1.90;1.38;;;;;;;21.61;30.92;102646.13;5099347;28;20514;-71
2023/03/03 08:52:13;;;;;;;3.22;1.67;;;;;;;21.63;30.95;102650.41;5096711;28;20031;-71
2023/03/03 08:54:39;;;;;;;2.45;1.50;;;;;;;21.18;30.90;102571.66;5099116;28;20036;-70
2023/03/03 08:57:04;;;;;;;3.47;1.60;;;;;;;21.70;31.21;102661.47;5100239;28;20043;-70
2023/03/03 08:59:29;;;;;;;2.25;1.33;;;;;;;21.66;31.12;102646.53;5083381;28;20028;-71
2023/03/03 09:01:55;;;;;;;1.45;1.20;;;;;;;21.70;30.57;102646.09;5098202;28;20041;-71
2023/03/03 09:04:23;;;;;;;1.38;1.17;;;;;;;21.23;31.09;102583.72;5096042;28;20614;-71
2023/03/03 09:06:48;;;;;;;1.90;1.17;;;;;;;21.69;30.91;102657.94;5098815;28;20032;-71
2023/03/03 09:09:13;;;;;;;1.92;1.20;;;;;;;21.71;30.98;102653.25;5101239;28;20020;-71
2023/03/03 09:11:39;;;;;;;2.45;1.42;;;;;;;21.59;31.02;102638.16;5096684;28;20032;-71
2023/03/03 09:14:14;;;;;;;1.83;1.10;;;;;;;21.73;30.96;102644.09;5094598;28;20080;-71
2023/03/03 09:16:49;;;;;;;1.55;1.08;;;;;;;21.71;31.29;102638.84;5099922;28;20032;-71
2023/03/03 09:19:31;;;;;;;1.83;1.02;;;;;;;21.74;31.28;102643.94;5098474;28;20024;-70
2023/03/03 09:22:20;;;;;;;1.73;1.15;;;;;;;21.74;31.28;102635.84;5094666;28;20020;-71
2023/03/03 09:24:46;;;;;;;1.38;1.02;;;;;;;21.74;30.82;102635.84;5091700;28;20024;-71
2023/03/03 09:27:18;;;;;;;1.25;1.00;;;;;;;21.58;30.89;102617.50;5097953;28;20028;-70
2023/03/03 09:29:43;;;;;;;1.95;1.20;;;;;;;21.71;31.35;102633.44;5096331;28;20112;-70
2023/03/03 09:32:21;;;;;;;1.83;1.10;;;;;;;21.76;31.25;102639.25;5092188;28;20024;-72
2023/03/03 09:34:46;;;;;;;2.10;1.13;;;;;;;21.75;30.96;102653.81;5097039;28;20032;-68
2023/03/03 09:37:33;;;;;;;1.98;1.13;;;;;;;21.77;31.24;102634.69;5094074;28;20035;-69
2023/03/03 09:39:58;;;;;;;1.88;0.90;;;;;;;21.83;31.43;102639.53;5082544;28;20029;-69
2023/03/03 09:42:36;;;;;;;5.45;1.35;;;;;;;21.83;31.16;102639.53;5091066;28;20033;-68
2023/03/03 09:45:10;;;;;;;6.88;2.38;;;;;;;21.81;31.47;102638.81;5096879;28;20143;-69
2023/03/03 09:47:56;;;;;;;3.95;1.58;;;;;;;21.78;31.18;102637.25;5096756;28;20013;-69
2023/03/03 09:50:35;;;;;;;4.82;1.73;;;;;;;21.80;31.26;102645.25;5092601;28;20064;-69
2023/03/03 09:53:51;;;;;;;4.63;1.27;;;;;;;21.80;31.14;102647.97;5089536;28;20063;-68
2023/03/03 09:56:55;;;;;;;1.95;1.13;;;;;;;21.80;31.07;102654.22;5095231;28;20056;-69
2023/03/03 09:59:26;;;;;;;2.33;1.02;;;;;;;21.79;31.22;102655.22;5079277;28;20036;-69
2023/03/03 10:02:09;;;;;;;2.33;1.05;;;;;;;21.79;31.41;102652.53;5103903;28;20054;-69
2023/03/03 10:04:41;;;;;;;2.78;1.10;;;;;;;21.77;31.32;102648.25;5074617;28;20649;-68
2023/03/03 10:07:32;;;;;;;2.50;1.00;;;;;;;21.66;31.41;102630.28;5093364;28;20032;-69
2023/03/03 10:10:30;;;;;;;3.03;1.10;;;;;;;21.79;31.28;102659.75;5094424;28;20035;-71
2023/03/03 10:13:20;;;;;;;3.20;1.10;;;;;;;21.62;31.18;102618.94;5098933;28;20020;-69
2023/03/03 10:16:07;;;;;;;1.67;1.05;;;;;;;21.84;31.20;102655.63;5101899;28;20506;-69
2023/03/03 10:18:45;;;;;;;2.95;1.08;;;;;;;21.88;31.01;102648.09;5097381;28;20024;-70
2023/03/03 10:21:18;;;;;;;2.42;0.90;;;;;;;21.91;31.26;102648.63;5099125;28;20024;-70
2023/03/03 10:23:44;;;;;;;4.72;1.30;;;;;;;21.93;31.39;102654.75;5096007;28;20032;-70
2023/03/03 10:26:17;;;;;;;1.75;1.08;;;;;;;22.00;31.15;102649.59;5100512;28;20035;-70
2023/03/03 10:28:45;;;;;;;1.23;0.93;;;;;;;22.03;31.28;102649.31;5098872;28;20127;-70
2023/03/03 10:31:26;;;;;;;1.92;1.02;;;;;;;21.56;31.16;102567.22;5098377;28;20111;-69
2023/03/03 10:34:09;;;;;;;1.65;0.90;;;;;;;21.57;31.32;102580.59;5098248;28;20020;-69
2023/03/03 10:36:40;;;;;;;1.27;0.95;;;;;;;22.05;30.98;102652.75;5095513;28;20017;-69
2023/03/03 10:39:26;;;;;;;2.60;1.08;;;;;;;22.07;31.04;102649.88;5096802;28;20050;-69
2023/03/03 10:42:26;;;;;;;1.65;0.98;;;;;;;22.11;30.95;102649.41;5100274;28;20363;-69
2023/03/03 10:45:16;;;;;;;0.93;0.73;;;;;;;21.94;31.09;102614.97;5098050;28;20375;-70
2023/03/03 10:47:53;;;;;;;2.17;1.00;;;;;;;22.17;30.87;102654.31;5095894;28;20025;-69
2023/03/03 10:50:30;;;;;;;2.17;0.75;;;;;;;22.14;30.70;102648.31;5097170;28;20119;-69
2023/03/03 10:53:22;;;;;;;1.85;0.95;;;;;;;22.15;31.12;102656.28;5093752;28;20051;-69
2023/03/03 10:56:05;;;;;;;2.28;0.70;;;;;;;21.96;31.26;102624.69;5099743;28;20087;-70
2023/03/03 10:58:34;;;;;;;1.88;0.80;;;;;;;22.14;31.17;102651.03;5097399;28;20028;-70
2023/03/03 11:01:08;;;;;;;;;;;;;;;22.11;30.87;102645.88;5094189;28;20037;-72
2023/03/03 11:04:06;;;;;;;1.85;1.08;;;;;;;21.74;31.00;102603.34;5099974;28;19942;-69
2023/03/03 11:06:42;;;;;;;1.42;1.02;;;;;;;22.10;31.36;102646.88;5093490;28;20048;-69
2023/03/03 11:09:14;;;;;;;3.63;1.10;;;;;;;22.12;31.23;102640.31;5097816;28;20020;-70
2023/03/03 11:12:00;;;;;;;1.70;0.80;;;;;;;22.08;31.26;102646.16;5096906;28;20096;-70
2023/03/03 11:14:46;;;;;;;0.95;0.80;;;;;;;22.05;31.52;102644.59;5097785;28;20032;-70
2023/03/03 11:17:24;;;;;;;1.27;0.80;;;;;;;21.61;31.47;102573.03;5100830;28;20039;-70
2023/03/03 11:19:53;;;;;;;1.25;0.70;;;;;;;22.00;31.29;102646.88;5090975;28;20028;-68
2023/03/03 11:22:32;;;;;;;1.75;0.80;;;;;;;22.05;31.29;102641.06;5093661;28;20393;-68
2023/03/03 11:25:00;;;;;;;2.00;0.85;;;;;;;22.04;31.68;102639.31;5099726;28;20032;-68
2023/03/03 11:27:38;;;;;;;1.25;0.80;;;;;;;21.95;31.41;102632.94;5099350;28;20017;-68
2023/03/03 11:30:41;;;;;;;1.25;0.88;;;;;;;22.00;31.72;102632.50;5086524;28;20024;-69
2023/03/03 11:33:30;;;;;;;1.65;1.02;;;;;;;21.99;31.88;102623.50;5097518;28;20026;-69
2023/03/03 11:36:04;;;;;;;1.50;0.80;;;;;;;22.00;31.51;102625.22;5056478;28;20037;-69
2023/03/03 11:39:26;;;;;;;1.42;0.70;;;;;;;22.01;31.76;102620.69;5057587;28;20514;-70